Airfield :







YOU CAN JOIN US ON...

 
LOGIN :

Register | Disclaimer

   EN    FR    IT 

 









Legend :    VFR   Marginal VFR   IFR   Intensive IFR   Very Intensive IFR
Visi :
Ceiling :
>= 8 km
>= 3000ft
5 to 8 km
1000 to 3000 ft
1500m to 5 km
500 to 1000 ft
800 to 1500m
200 to 500 ft
< 800m
< 200 ft
Symbols :   Thunderstorms  Fog  Heavy snow  Heavy precipitations  Wind > 20 kt






- Airport Elevation : 232 ft
- IATA code : YQM


CYQM - Greater Moncton International

CURRENT METAR :
  • 071100Z 26008KT 15SM FEW084 BKN140 BKN230 M09/M12 A2997 RMK AC2AC3CI1 CI TR SLP155

EXPIRED METARs :
  • 071000Z 25008KT 15SM FEW080 SCT150 BKN230 M09/M12 A2995 RMK AC1AC2CI3 SLP148
  • 070900Z 27007KT 15SM FEW080 BKN110 M08/M11 A2994 RMK AC2AC4 SLP145

TAF TAF CYQM
Valid from the 07 at 06:00 until the 08 at 06:00 UTC


070538Z 0706/0806 25006KT P6SM BKN150
FM071200 26010KT P6SM SKC
BECMG 0713/0715 27010G20KT
FM072200 27010KT P6SM SKC RMK NXT FCST BY 071200Z



MET'MAP, your aeronautical weather chart ! - Copyright ORBIFLY December 2007 - Disclaimer

ORBIFLY MET'MAP TEAM :

Programming & Development : Alexandra Zaïnal
Concept & original design : Baudouin d'Aumeries
Assistance for programming : Marc-Olivier Méhu
Technical & hardware support : Manuel Goepfert

Contact : metmap@orbifly.com




SOURCES & CREDITS :

   NOAA